Last 24 Hours

OV-Siberia 8700'

Hourly Data | America/Los_Angeles
as of 10/6/22 8:53 PM PDT
Date & Time Temp (°F) RH (%) Dew Pt (°F) Wet Bulb (°F) Wind Dir (°) Wind Spd (mph) Wind Gust (mph) WindChill (°F) Daily Min Temp (°F) Daily Max Temp (°F)
10/6/22 - 2000 55.2 28 22.7 40.3 W | 273 9.9 16.8 54.2 53.7 62.6
10/6/22 - 1900 54.7 30 24.0 40.4 W | 263 16.2 21.4 56.6 54.6 62.6
10/6/22 - 1800 58.6 27 25.2 42.6 W | 265 16.6 23.3 59.8 55.5 62.6
10/6/22 - 1700 61.1 25 25.1 43.7 W | 264 17.6 26.5 60.7 55.5 62.6
10/6/22 - 1600 61.1 25 25.4 43.7 WSW | 245 16.5 25.2 61.4 55.5 62.6
10/6/22 - 1500 61.9 23 23.5 43.5 WSW | 238 17.8 27.1 60.8 55.5 62.6
10/6/22 - 1400 60.6 22 21.3 42.4 WSW | 253 17.3 28.3 60.6 55.5 62.1
10/6/22 - 1300 61.1 21 21.2 42.6 SW | 236 15.3 24.3 60.5 55.5 61.9
10/6/22 - 1200 59.9 18 16.7 41.0 SSW | 198 8.6 19.6 58.3 55.5 60.0
10/6/22 - 1100 57.6 22 18.9 40.4 SSW | 209 5.0 10.8 56.4 55.5 57.6
10/6/22 - 1000 57.6 30 26.4 42.5 SE | 126 0.2 5.1 56.4 50.9 58.4
10/6/22 - 0900 56.1 29 24.5 41.2 ESE | 108 0.2 1.7 54.6 50.9 56.3
10/6/22 - 0800 53.2 35 26.4 40.4 SSE | 160 2.3 5.8 52.2 50.9 53.3
10/6/22 - 0700 51.2 31 21.4 38.0 ESE | 109 2.5 8.7 51.4 50.9 52.4
10/6/22 - 0600 51.6 30 21.2 38.1 ENE | 77 5.3 9.8 49.8 50.9 52.4
10/6/22 - 0500 51.7 32 22.5 38.5 ENE | 70 8.8 14.0 48.5 51.1 52.4
10/6/22 - 0400 51.8 32 22.8 38.7 NE | 51 13.0 20.6 47.7 51.5 52.4
10/6/22 - 0300 52.2 31 22.7 38.9 NE | 46 13.0 21.0 47.8 51.6 52.4
10/6/22 - 0200 52.0 32 23.4 39.0 ENE | 64 14.9 20.3 47.3 51.6 52.3
10/6/22 - 0100 52.0 34 24.6 39.3 ENE | 65 16.4 23.4 46.9 51.7 52.3
10/6/22 - 0000 52.1 36 26.1 39.8 ENE | 65 15.2 20.1 47.5 49.9 64.2
10/5/22 - 2300 52.0 50 33.9 42.7 ENE | 72 15.4 22.0 46.5 49.9 64.2
10/5/22 - 2200 51.2 49 32.9 41.9 ENE | 72 13.7 20.7 47.6 49.9 64.2
10/5/22 - 2100 53.0 48 34.0 43.2 ENE | 76 7.0 13.9 52.2 49.9 64.2
10/5/22 - 2000 53.2 55 37.3 44.6 WNW | 287 3.3 13.2 53.3 49.9 64.2
Max 61.9 55 37.3 44.6 - 17.8 28.3 61.4 55.5 64.2
Avg 55.3 32 25.0 41.1 - 10.9 17.7 53.6 - -
Min 51.2 18 16.7 38.0 - 0.2 1.7 46.5 49.9 52.3